createdAt,value
2022-10-20T00:01:42.814Z,8.82
2022-10-20T00:04:11.476Z,7.53
2022-10-20T00:06:43.409Z,10.60
2022-10-20T00:09:16.331Z,11.13
2022-10-20T00:11:50.699Z,10.13
2022-10-20T00:14:21.856Z,10.25
2022-10-20T00:16:50.319Z,8.40
2022-10-20T00:19:19.329Z,7.80
2022-10-20T00:21:48.293Z,9.52
2022-10-20T00:24:23.405Z,9.75
2022-10-20T00:26:53.604Z,9.48
2022-10-20T00:29:27.983Z,9.95
2022-10-20T00:31:56.856Z,11.40
2022-10-20T00:34:25.121Z,8.95
2022-10-20T00:36:53.349Z,9.18
2022-10-20T00:39:21.663Z,10.30
2022-10-20T00:41:51.429Z,8.02
2022-10-20T00:44:54.295Z,8.40
2022-10-20T00:47:31.778Z,9.90
2022-10-20T00:50:18.820Z,9.60
2022-10-20T00:52:50.812Z,9.70
2022-10-20T00:55:23.949Z,8.93
2022-10-20T00:57:54.802Z,7.43
2022-10-20T01:00:29.443Z,7.28
2022-10-20T01:03:04.171Z,11.70
2022-10-20T01:05:34.591Z,8.70
2022-10-20T01:08:06.505Z,7.45
2022-10-20T01:10:42.296Z,9.43
2022-10-20T01:13:32.136Z,9.02
2022-10-20T01:16:18.824Z,8.13
2022-10-20T01:19:04.448Z,8.75
2022-10-20T01:21:57.888Z,8.57
2022-10-20T01:24:54.167Z,9.00
2022-10-20T01:27:48.549Z,8.38
2022-10-20T01:30:21.464Z,9.30
2022-10-20T01:33:12.431Z,7.00
2022-10-20T01:35:47.832Z,9.50
2022-10-20T01:38:22.782Z,10.15
2022-10-20T01:40:55.796Z,7.53
2022-10-20T01:43:28.338Z,7.50
2022-10-20T01:46:00.109Z,9.10
2022-10-20T01:48:38.737Z,10.30
2022-10-20T01:51:08.172Z,9.95
2022-10-20T01:53:37.058Z,7.82
2022-10-20T01:56:06.561Z,9.50
2022-10-20T01:59:10.516Z,10.23
2022-10-20T02:01:56.329Z,7.43
2022-10-20T02:04:35.419Z,8.32
2022-10-20T02:07:15.830Z,9.25
2022-10-20T02:09:50.696Z,9.27
2022-10-20T02:12:27.607Z,8.10
2022-10-20T02:14:57.637Z,8.80
2022-10-20T02:17:28.202Z,7.97
2022-10-20T02:19:59.558Z,9.65
2022-10-20T02:22:29.994Z,8.30
2022-10-20T02:25:06.435Z,9.77
2022-10-20T02:27:40.603Z,8.35
2022-10-20T02:30:11.951Z,9.30
2022-10-20T02:32:44.269Z,8.45
2022-10-20T02:35:17.457Z,9.77
2022-10-20T02:37:54.669Z,9.60
2022-10-20T02:40:24.164Z,7.38
2022-10-20T02:42:53.039Z,9.18
2022-10-20T02:45:24.409Z,8.07
2022-10-20T02:47:57.723Z,10.75
2022-10-20T02:50:28.787Z,10.98
2022-10-20T02:52:57.717Z,9.30
2022-10-20T02:55:34.660Z,10.18
2022-10-20T02:58:04.098Z,8.68
2022-10-20T03:00:32.601Z,9.18
2022-10-20T03:03:05.338Z,9.48
2022-10-20T03:05:36.615Z,10.15
2022-10-20T03:08:06.737Z,7.90
2022-10-20T03:10:39.914Z,9.00
2022-10-20T03:13:10.022Z,9.40
2022-10-20T03:15:42.216Z,9.40
2022-10-20T03:18:13.557Z,8.38
2022-10-20T03:20:43.149Z,8.32
2022-10-20T03:23:15.177Z,8.15
2022-10-20T03:25:48.663Z,8.85
2022-10-20T03:28:19.086Z,7.93
2022-10-20T03:30:47.856Z,7.63
2022-10-20T03:33:17.601Z,6.97
2022-10-20T03:35:47.393Z,8.20
2022-10-20T03:38:19.430Z,6.32
2022-10-20T03:43:45.362Z,6.32
2022-10-20T03:46:16.153Z,7.82
2022-10-20T03:49:00.065Z,6.18
2022-10-20T03:51:32.269Z,6.25
2022-10-20T03:54:05.847Z,6.75
2022-10-20T03:56:35.694Z,6.53
2022-10-20T03:59:08.870Z,9.43
2022-10-20T04:01:39.415Z,6.68
2022-10-20T04:07:08.836Z,7.18
2022-10-20T04:09:38.708Z,6.40
2022-10-20T04:12:08.728Z,7.40
2022-10-20T04:14:38.657Z,6.30
2022-10-20T04:17:09.431Z,7.65
2022-10-20T04:19:47.502Z,6.18
2022-10-20T04:22:16.377Z,7.88
2022-10-20T04:24:45.219Z,9.45
2022-10-20T04:27:15.093Z,8.40
2022-10-20T04:29:45.064Z,7.63
2022-10-20T04:32:14.434Z,9.98
2022-10-20T04:34:44.487Z,7.80
2022-10-20T04:37:13.484Z,9.25
2022-10-20T04:39:42.533Z,6.90
2022-10-20T04:42:10.766Z,8.95
2022-10-20T04:44:39.011Z,5.40
2022-10-20T04:47:08.868Z,7.90
2022-10-20T04:49:38.100Z,6.05
2022-10-20T04:52:11.707Z,7.05
2022-10-20T04:54:39.966Z,6.30
2022-10-20T04:57:08.447Z,6.32
2022-10-20T04:59:36.727Z,7.90
2022-10-20T05:02:05.225Z,5.75
2022-10-20T05:04:33.447Z,5.38
2022-10-20T05:07:01.640Z,6.00
2022-10-20T05:09:32.407Z,5.25
2022-10-20T05:12:00.993Z,6.45
2022-10-20T05:14:29.385Z,7.45
2022-10-20T05:16:58.705Z,10.15
2022-10-20T05:19:27.868Z,5.78
2022-10-20T05:21:56.997Z,4.78
2022-10-20T05:24:30.160Z,5.53
2022-10-20T05:27:01.802Z,6.93
2022-10-20T05:29:30.257Z,6.95
2022-10-20T05:32:01.203Z,6.90
2022-10-20T05:34:30.496Z,5.88
2022-10-20T05:37:03.186Z,8.68
2022-10-20T05:39:34.123Z,11.40
2022-10-20T05:42:08.543Z,7.50
2022-10-20T05:44:37.369Z,7.30
2022-10-20T05:47:05.933Z,8.00
2022-10-20T05:49:34.247Z,10.27
2022-10-20T05:52:02.703Z,8.70
2022-10-20T05:54:31.571Z,8.40
2022-10-20T05:57:01.997Z,7.85
2022-10-20T05:59:36.625Z,7.97
2022-10-20T06:02:05.222Z,10.27
2022-10-20T06:04:34.446Z,11.00
2022-10-20T06:07:06.026Z,9.35
2022-10-20T06:12:03.580Z,7.72
2022-10-20T06:14:37.039Z,8.85
2022-10-20T06:17:12.879Z,10.15
2022-10-20T06:19:41.287Z,9.48
2022-10-20T06:22:10.639Z,11.02
2022-10-20T06:24:41.851Z,12.20
2022-10-20T06:27:10.824Z,14.40
2022-10-20T06:29:42.148Z,12.05
2022-10-20T06:32:11.509Z,10.93
2022-10-20T06:34:55.994Z,11.05
2022-10-20T06:37:26.362Z,10.40
2022-10-20T06:39:57.614Z,10.77
2022-10-20T06:42:28.803Z,11.73
2022-10-20T06:45:01.411Z,8.55
2022-10-20T06:47:32.095Z,10.55
2022-10-20T06:53:16.209Z,10.00
2022-10-20T06:56:01.311Z,10.80
2022-10-20T06:58:32.142Z,8.23
2022-10-20T07:01:05.550Z,6.05
2022-10-20T07:03:39.235Z,5.40
2022-10-20T07:06:09.138Z,4.05
2022-10-20T07:08:38.013Z,5.95
2022-10-20T07:11:08.252Z,6.20
2022-10-20T07:13:37.770Z,9.73
2022-10-20T07:16:09.894Z,10.35
2022-10-20T07:18:39.314Z,11.35
2022-10-20T07:21:09.616Z,12.93
2022-10-20T07:23:38.448Z,12.45
2022-10-20T07:26:10.273Z,11.32
2022-10-20T07:28:41.430Z,11.60
2022-10-20T07:31:13.635Z,14.95
2022-10-20T07:33:43.543Z,14.95
2022-10-20T07:36:16.439Z,13.80
2022-10-20T07:38:45.434Z,15.27
2022-10-20T07:41:23.362Z,14.48
2022-10-20T07:43:52.142Z,13.38
2022-10-20T07:46:22.095Z,15.50
2022-10-20T07:48:50.769Z,18.23
2022-10-20T07:51:29.449Z,12.98
2022-10-20T07:54:01.150Z,18.27
2022-10-20T07:56:31.936Z,15.95
2022-10-20T07:59:01.091Z,15.85
2022-10-20T08:01:31.689Z,16.42
2022-10-20T08:04:01.474Z,15.05
2022-10-20T08:06:43.737Z,15.05
2022-10-20T08:09:13.902Z,14.77
2022-10-20T08:11:43.878Z,14.98
2022-10-20T08:14:13.603Z,12.98
2022-10-20T08:16:51.698Z,15.45
2022-10-20T08:22:05.652Z,11.30
2022-10-20T08:30:22.421Z,10.13
2022-10-20T08:32:55.067Z,11.00
2022-10-20T08:35:25.737Z,11.70
2022-10-20T08:37:55.281Z,12.68
2022-10-20T08:40:30.212Z,12.63
2022-10-20T08:45:42.691Z,12.02
2022-10-20T08:48:23.067Z,12.05
2022-10-20T08:50:58.244Z,12.63
2022-10-20T08:53:29.238Z,14.43
2022-10-20T08:55:59.238Z,14.05
2022-10-20T08:58:28.747Z,13.65
2022-10-20T09:00:58.863Z,13.23
2022-10-20T09:03:32.683Z,16.23
2022-10-20T09:06:09.107Z,15.90
2022-10-20T09:08:39.550Z,13.63
2022-10-20T09:11:10.292Z,13.13
2022-10-20T09:13:41.409Z,13.52
2022-10-20T09:16:27.175Z,14.98
2022-10-20T09:19:21.199Z,12.32
2022-10-20T09:21:55.943Z,13.82
2022-10-20T09:24:30.859Z,15.93
2022-10-20T09:27:21.208Z,14.88
2022-10-20T09:29:50.099Z,13.63
2022-10-20T09:32:46.654Z,14.55
2022-10-20T09:38:28.998Z,14.55
2022-10-20T09:41:09.195Z,13.77
2022-10-20T09:43:50.035Z,13.68
2022-10-20T09:46:23.575Z,16.02
2022-10-20T09:48:53.607Z,14.18
2022-10-20T09:51:29.573Z,15.77
2022-10-20T09:54:14.093Z,13.05
2022-10-20T09:56:43.796Z,18.08
2022-10-20T09:59:22.381Z,14.20
2022-10-20T10:01:58.860Z,15.55
2022-10-20T10:04:34.481Z,15.95
2022-10-20T10:07:05.496Z,16.95
2022-10-20T10:09:36.299Z,14.65
2022-10-20T10:12:06.666Z,14.65
2022-10-20T10:14:37.577Z,18.73
2022-10-20T10:17:06.135Z,15.90
2022-10-20T10:19:35.846Z,17.13
2022-10-20T10:22:06.132Z,16.35
2022-10-20T10:24:47.712Z,13.65
2022-10-20T10:29:52.459Z,14.38
2022-10-20T10:32:26.000Z,14.57
2022-10-20T10:35:24.397Z,15.02
2022-10-20T10:38:07.494Z,15.40
2022-10-20T10:40:43.582Z,13.50
2022-10-20T10:43:44.899Z,15.18
2022-10-20T10:46:27.035Z,18.23
2022-10-20T10:52:32.286Z,13.75
2022-10-20T10:55:21.326Z,17.42
2022-10-20T10:58:11.287Z,13.80
2022-10-20T11:00:46.928Z,13.85
2022-10-20T11:03:39.793Z,14.73
2022-10-20T11:06:19.712Z,14.68
2022-10-20T11:09:21.440Z,14.07
2022-10-20T11:12:07.537Z,15.50
2022-10-20T11:14:48.632Z,12.75
2022-10-20T11:17:33.628Z,13.38
2022-10-20T11:20:18.721Z,13.40
2022-10-20T11:23:03.200Z,13.38
2022-10-20T11:25:37.353Z,14.27
2022-10-20T11:28:16.022Z,15.57
2022-10-20T11:30:44.828Z,17.20
2022-10-20T11:33:19.223Z,16.00
2022-10-20T11:35:53.091Z,14.00
2022-10-20T11:38:31.521Z,14.57
2022-10-20T11:41:05.974Z,15.95
2022-10-20T11:43:38.925Z,11.18
2022-10-20T11:46:12.711Z,13.55
2022-10-20T11:48:46.521Z,11.40
2022-10-20T11:51:41.336Z,13.35
2022-10-20T11:54:52.944Z,13.82
2022-10-20T11:57:31.717Z,12.93
2022-10-20T12:00:17.481Z,14.68
2022-10-20T12:03:19.689Z,17.00
2022-10-20T12:06:10.396Z,13.55
2022-10-20T12:09:09.107Z,12.93
2022-10-20T12:11:43.547Z,16.42
2022-10-20T12:14:28.499Z,15.30
2022-10-20T12:17:16.809Z,13.80
2022-10-20T12:19:45.873Z,14.98
2022-10-20T12:22:41.110Z,13.90
2022-10-20T12:25:44.956Z,14.93
2022-10-20T12:28:42.676Z,15.90
2022-10-20T12:31:12.542Z,15.85
2022-10-20T12:34:02.281Z,15.23
2022-10-20T12:36:36.228Z,14.77
2022-10-20T12:39:20.286Z,15.70
2022-10-20T12:42:01.470Z,15.38
2022-10-20T12:44:33.374Z,15.25
2022-10-20T12:47:08.514Z,15.93
2022-10-20T12:49:40.310Z,15.65
2022-10-20T12:52:18.079Z,14.18
2022-10-20T12:54:48.687Z,14.63
2022-10-20T12:57:32.036Z,14.70
2022-10-20T13:00:00.607Z,14.00
2022-10-20T13:02:35.358Z,15.43
2022-10-20T13:05:25.166Z,13.52
2022-10-20T13:08:24.815Z,14.40
2022-10-20T13:10:55.292Z,14.95
2022-10-20T13:13:50.416Z,13.93
2022-10-20T13:16:24.775Z,13.65
2022-10-20T13:18:55.661Z,12.77
2022-10-20T13:21:35.333Z,15.13
2022-10-20T13:24:10.733Z,13.38
2022-10-20T13:26:46.554Z,15.10
2022-10-20T13:29:21.597Z,12.38
2022-10-20T13:32:03.809Z,15.55
2022-10-20T13:34:44.878Z,13.25
2022-10-20T13:37:30.370Z,13.40
2022-10-20T13:40:12.544Z,14.68
2022-10-20T13:42:52.593Z,15.48
2022-10-20T13:45:31.645Z,15.57
2022-10-20T13:48:14.945Z,14.43
2022-10-20T13:51:03.196Z,13.70
2022-10-20T13:53:34.897Z,14.73
2022-10-20T13:56:07.095Z,13.65
2022-10-20T13:58:36.454Z,13.48
2022-10-20T14:01:07.297Z,14.73
2022-10-20T14:03:44.685Z,11.82
2022-10-20T14:09:18.602Z,15.20
2022-10-20T14:11:48.438Z,10.70
2022-10-20T14:14:19.702Z,11.00
2022-10-20T14:16:53.467Z,9.48
2022-10-20T14:19:27.709Z,7.18
2022-10-20T14:21:57.949Z,9.45
2022-10-20T14:24:33.071Z,9.75
2022-10-20T14:27:03.818Z,8.32
2022-10-20T14:29:35.003Z,13.07
2022-10-20T14:32:03.561Z,16.73
2022-10-20T14:34:35.983Z,14.57
2022-10-20T14:37:08.072Z,18.00
2022-10-20T14:39:39.467Z,19.17
2022-10-20T14:42:22.480Z,21.10
2022-10-20T14:44:52.078Z,18.80
2022-10-20T14:47:22.052Z,22.30
2022-10-20T14:49:55.465Z,20.35
2022-10-20T14:52:37.359Z,22.13
2022-10-20T14:55:43.902Z,17.27
2022-10-20T14:58:34.343Z,20.30
2022-10-20T15:01:17.322Z,20.63
2022-10-20T15:03:45.809Z,22.38
2022-10-20T15:06:17.966Z,28.48
2022-10-20T15:08:55.180Z,21.55
2022-10-20T15:11:27.121Z,23.20
2022-10-20T15:13:59.095Z,29.17
2022-10-20T15:16:36.602Z,23.15
2022-10-20T15:19:32.220Z,20.17
2022-10-20T15:22:03.581Z,20.60
2022-10-20T15:24:31.824Z,18.83
2022-10-20T15:27:02.950Z,22.08
2022-10-20T15:29:31.950Z,18.48
2022-10-20T15:32:00.714Z,21.13
2022-10-20T15:34:28.983Z,21.80
2022-10-20T15:36:57.221Z,19.40
2022-10-20T15:39:25.495Z,20.23
2022-10-20T15:41:54.727Z,21.13
2022-10-20T15:44:24.557Z,19.70
2022-10-20T15:46:54.926Z,19.65
2022-10-20T15:49:24.122Z,20.92
2022-10-20T15:51:52.672Z,23.08
2022-10-20T15:54:22.530Z,17.05
2022-10-20T15:56:50.798Z,19.50
2022-10-20T15:59:19.043Z,24.30
2022-10-20T16:01:48.616Z,18.58
2022-10-20T16:04:23.267Z,21.45
2022-10-20T16:06:57.669Z,20.75
2022-10-20T16:09:28.785Z,19.38
2022-10-20T16:11:57.093Z,20.15
2022-10-20T16:14:25.528Z,21.73
2022-10-20T16:16:58.018Z,21.98
2022-10-20T16:19:26.779Z,21.55
2022-10-20T16:21:55.566Z,22.73
2022-10-20T16:24:24.085Z,21.23
2022-10-20T16:26:53.108Z,21.38
2022-10-20T16:29:22.111Z,22.35
2022-10-20T16:31:51.071Z,22.65
2022-10-20T16:34:21.208Z,21.98
2022-10-20T16:36:51.940Z,19.88
2022-10-20T16:39:20.874Z,21.80
2022-10-20T16:41:49.151Z,22.02
2022-10-20T16:44:18.033Z,21.40
2022-10-20T16:46:46.178Z,22.42
2022-10-20T16:49:14.358Z,21.48
2022-10-20T16:51:43.961Z,24.48
2022-10-20T16:54:12.469Z,20.75
2022-10-20T16:56:40.714Z,19.73
2022-10-20T16:59:09.130Z,23.98
2022-10-20T17:01:37.327Z,20.20
2022-10-20T17:04:06.962Z,27.10
2022-10-20T17:06:35.240Z,22.40
2022-10-20T17:09:05.286Z,28.42
2022-10-20T17:11:34.127Z,27.65
2022-10-20T17:14:02.322Z,24.27
2022-10-20T17:16:32.737Z,23.25
2022-10-20T17:19:02.819Z,22.45
2022-10-20T17:21:32.491Z,24.65
2022-10-20T17:24:01.599Z,25.98
2022-10-20T17:26:32.828Z,26.80
2022-10-20T17:29:02.507Z,33.00
2022-10-20T17:31:31.556Z,27.63
2022-10-20T17:34:00.427Z,27.17
2022-10-20T17:36:30.056Z,27.73
2022-10-20T17:39:00.622Z,23.58
2022-10-20T17:41:30.538Z,28.13
2022-10-20T17:44:01.027Z,23.80
2022-10-20T17:46:29.877Z,25.17
2022-10-20T17:48:58.062Z,26.85
2022-10-20T17:51:31.866Z,23.77
2022-10-20T17:54:03.238Z,27.35
2022-10-20T17:56:36.805Z,29.48
2022-10-20T17:59:08.001Z,27.48
2022-10-20T18:01:39.414Z,24.48
2022-10-20T18:04:10.203Z,22.60
2022-10-20T18:06:39.182Z,23.25
2022-10-20T18:09:10.886Z,21.08
2022-10-20T18:11:42.071Z,24.33
2022-10-20T18:14:10.552Z,24.88
2022-10-20T18:16:39.750Z,21.60
2022-10-20T18:19:09.539Z,22.90
2022-10-20T18:21:37.708Z,20.33
2022-10-20T18:24:08.387Z,25.55
2022-10-20T18:26:38.558Z,21.00
2022-10-20T18:29:11.202Z,22.17
2022-10-20T18:31:42.511Z,22.05
2022-10-20T18:34:13.629Z,20.25
2022-10-20T18:36:45.144Z,21.80
2022-10-20T18:39:15.487Z,20.50
2022-10-20T18:41:46.471Z,22.38
2022-10-20T18:44:18.600Z,25.33
2022-10-20T18:46:48.226Z,23.13
2022-10-20T18:49:19.757Z,24.70
2022-10-20T18:54:18.389Z,22.75
2022-10-20T18:56:47.065Z,23.27
2022-10-20T18:59:17.947Z,23.58
2022-10-20T19:01:48.308Z,29.20
2022-10-20T19:04:16.701Z,24.38
2022-10-20T19:06:46.640Z,22.98
2022-10-20T19:09:17.046Z,23.35
2022-10-20T19:11:46.245Z,22.50
2022-10-20T19:14:17.327Z,24.17
2022-10-20T19:16:48.750Z,24.75
2022-10-20T19:19:17.499Z,23.88
2022-10-20T19:21:46.138Z,25.45
2022-10-20T19:24:17.132Z,22.67
2022-10-20T19:26:56.980Z,24.30
2022-10-20T19:29:37.481Z,22.65
2022-10-20T19:32:07.420Z,25.95
2022-10-20T19:34:37.649Z,25.48
2022-10-20T19:37:06.720Z,26.65
2022-10-20T19:39:37.130Z,23.63
2022-10-20T19:42:07.115Z,26.38
2022-10-20T19:44:37.932Z,26.13
2022-10-20T19:47:08.206Z,26.50
2022-10-20T19:49:37.737Z,27.23
2022-10-20T19:52:06.948Z,25.50
2022-10-20T19:54:35.683Z,25.15
2022-10-20T19:57:04.571Z,25.17
2022-10-20T19:59:33.203Z,26.92
2022-10-20T20:02:03.444Z,30.48
2022-10-20T20:04:31.744Z,24.58
2022-10-20T20:07:02.308Z,23.40
2022-10-20T20:09:30.879Z,23.38
2022-10-20T20:12:01.624Z,24.50
2022-10-20T20:14:29.845Z,22.20
2022-10-20T20:16:58.176Z,27.08
2022-10-20T20:19:27.769Z,25.65
2022-10-20T20:21:55.962Z,25.08
2022-10-20T20:24:24.574Z,22.67
2022-10-20T20:26:53.174Z,19.58
2022-10-20T20:29:21.531Z,20.92
2022-10-20T20:31:50.268Z,21.13
2022-10-20T20:34:18.700Z,20.45
2022-10-20T20:36:49.834Z,20.40
2022-10-20T20:39:18.079Z,18.75
2022-10-20T20:41:47.130Z,16.95
2022-10-20T20:44:15.497Z,20.13
2022-10-20T20:46:44.003Z,17.73
2022-10-20T20:49:12.387Z,22.88
2022-10-20T20:51:41.110Z,14.52
2022-10-20T20:54:11.535Z,17.17
2022-10-20T20:56:39.930Z,16.90
2022-10-20T20:59:08.183Z,17.33
2022-10-20T21:01:36.544Z,15.75
2022-10-20T21:04:10.222Z,16.30
2022-10-20T21:07:00.611Z,19.30
2022-10-20T21:09:30.195Z,15.23
2022-10-20T21:11:58.466Z,15.43
2022-10-20T21:14:26.988Z,14.77
2022-10-20T21:16:55.207Z,13.32
2022-10-20T21:19:23.407Z,14.52
2022-10-20T21:21:57.520Z,15.98
2022-10-20T21:24:26.923Z,11.68
2022-10-20T21:26:56.890Z,14.70
2022-10-20T21:29:25.499Z,14.50
2022-10-20T21:31:55.179Z,11.90
2022-10-20T21:34:23.531Z,13.50
2022-10-20T21:36:51.891Z,10.90
2022-10-20T21:39:20.418Z,12.50
2022-10-20T21:41:51.578Z,12.68
2022-10-20T21:44:21.319Z,13.55
2022-10-20T21:46:51.108Z,13.93
2022-10-20T21:49:21.294Z,12.07
2022-10-20T21:51:52.950Z,10.80
2022-10-20T21:54:23.390Z,14.23
2022-10-20T21:56:52.079Z,15.43
2022-10-20T21:59:24.254Z,14.05
2022-10-20T22:01:54.024Z,12.95
2022-10-20T22:04:24.946Z,12.05
2022-10-20T22:06:53.489Z,13.25
2022-10-20T22:09:22.123Z,12.38
2022-10-20T22:11:52.826Z,13.13
2022-10-20T22:14:23.150Z,8.57
2022-10-20T22:16:51.855Z,13.77
2022-10-20T22:19:22.658Z,12.32
2022-10-20T22:21:54.195Z,17.30
2022-10-20T22:26:52.934Z,24.38
2022-10-20T22:29:24.662Z,22.63
2022-10-20T22:31:53.680Z,21.98
2022-10-20T22:34:22.029Z,25.67
2022-10-20T22:36:50.456Z,22.60
2022-10-20T22:39:18.770Z,24.15
2022-10-20T22:41:46.979Z,22.92
2022-10-20T22:44:15.251Z,21.48
2022-10-20T22:46:45.375Z,29.80
2022-10-20T22:49:14.444Z,29.13
2022-10-20T22:51:42.739Z,25.38
2022-10-20T22:54:11.088Z,24.52
2022-10-20T22:56:39.368Z,23.08
2022-10-20T22:59:07.571Z,21.58
2022-10-20T23:01:35.781Z,20.45
2022-10-20T23:04:05.487Z,21.08
2022-10-20T23:06:33.728Z,17.52
2022-10-20T23:09:01.984Z,18.83
2022-10-20T23:11:30.538Z,18.05
2022-10-20T23:13:58.697Z,19.88
2022-10-20T23:16:26.917Z,19.17
2022-10-20T23:18:55.803Z,15.13
2022-10-20T23:21:26.507Z,16.17
2022-10-20T23:23:54.824Z,16.70
2022-10-20T23:26:23.099Z,11.60
2022-10-20T23:28:51.383Z,11.07
2022-10-20T23:31:21.884Z,9.77
2022-10-20T23:33:52.184Z,11.75
2022-10-20T23:36:20.598Z,11.15
2022-10-20T23:38:50.518Z,14.85
2022-10-20T23:41:18.933Z,14.55
2022-10-20T23:43:48.090Z,13.05
2022-10-20T23:46:17.480Z,15.93
2022-10-20T23:48:45.729Z,17.63
2022-10-20T23:51:14.207Z,20.10
2022-10-20T23:53:42.667Z,16.58
2022-10-20T23:56:12.475Z,19.20
2022-10-20T23:58:41.887Z,16.30
